Time;durP1;ratioP1;P1;durP2;ratioP2;P2;SDS_P1;SDS_P2;PMS_P1;PMS_P2;Temp;Humidity;BMP_temperature;BMP_pressure;BME280_temperature;BME280_humidity;BME280_pressure;Samples;Min_cycle;Max_cycle;Signal;HPM_P1;HPM_P2
2021/07/24 00:01:00;;;;;;;3.40;3.10;;;25.80;48.80;;;;;;5070493;28;20107;-70
2021/07/24 00:03:28;;;;;;;3.45;3.15;;;25.80;48.80;;;;;;5070397;28;20040;-70
2021/07/24 00:05:55;;;;;;;4.07;3.67;;;25.80;48.80;;;;;;5070693;28;20393;-70
2021/07/24 00:08:23;;;;;;;3.90;3.50;;;25.80;48.80;;;;;;5069900;28;20079;-70
2021/07/24 00:10:50;;;;;;;4.07;3.25;;;25.80;48.80;;;;;;5070054;28;20052;-70
2021/07/24 00:13:17;;;;;;;3.33;3.03;;;25.70;48.80;;;;;;5069741;28;20091;-70
2021/07/24 00:15:44;;;;;;;4.60;3.33;;;25.80;48.90;;;;;;5068627;28;20131;-70
2021/07/24 00:18:12;;;;;;;3.67;3.10;;;25.70;48.80;;;;;;5070108;28;20125;-70
2021/07/24 00:20:39;;;;;;;4.18;3.78;;;25.80;48.90;;;;;;5069760;28;20044;-70
2021/07/24 00:23:11;;;;;;;4.22;3.83;;;25.70;48.80;;;;;;5070112;28;20592;-70
2021/07/24 00:25:40;;;;;;;5.25;3.50;;;25.70;48.80;;;;;;5070476;28;20058;-71
2021/07/24 00:28:07;;;;;;;3.38;3.08;;;25.70;48.90;;;;;;5069853;28;20049;-70
2021/07/24 00:30:39;;;;;;;3.70;3.35;;;25.70;48.90;;;;;;5070191;28;20440;-70
2021/07/24 00:33:07;;;;;;;3.20;2.90;;;25.70;48.90;;;;;;5070159;28;20102;-69
2021/07/24 00:35:34;;;;;;;4.07;3.67;;;25.70;48.90;;;;;;5069795;28;20137;-70
2021/07/24 00:38:02;;;;;;;4.32;3.25;;;25.70;48.90;;;;;;5069874;28;20445;-70
2021/07/24 00:40:31;;;;;;;3.60;3.30;;;25.70;48.90;;;;;;5069478;28;20072;-70
2021/07/24 00:43:01;;;;;;;3.35;3.05;;;25.70;49.00;;;;;;5069800;28;20098;-70
2021/07/24 00:45:38;;;;;;;3.60;3.30;;;25.70;49.00;;;;;;5069373;28;20135;-70
2021/07/24 00:48:06;;;;;;;3.70;3.25;;;25.70;49.00;;;;;;5069317;28;20057;-70
2021/07/24 00:50:34;;;;;;;3.60;3.17;;;25.70;49.00;;;;;;5069493;28;20618;-70
2021/07/24 00:53:10;;;;;;;3.60;3.13;;;25.70;49.00;;;;;;5069053;28;20139;-70
2021/07/24 00:55:38;;;;;;;4.25;3.80;;;25.70;49.00;;;;;;5069079;28;20045;-70
2021/07/24 00:58:22;;;;;;;4.65;3.33;;;25.70;48.90;;;;;;5068187;28;20111;-70
2021/07/24 01:00:51;;;;;;;4.68;3.42;;;25.70;48.90;;;;;;5069275;28;20579;-70
2021/07/24 01:03:19;;;;;;;3.80;3.10;;;25.70;48.90;;;;;;5068165;28;20702;-70
2021/07/24 01:05:50;;;;;;;3.75;3.33;;;25.70;48.90;;;;;;5067864;28;20076;-70
2021/07/24 01:08:18;;;;;;;5.35;3.30;;;25.70;48.90;;;;;;5069343;28;20105;-70
2021/07/24 01:10:47;;;;;;;3.25;2.95;;;25.70;48.90;;;;;;5068831;28;20058;-70
2021/07/24 01:13:18;;;;;;;3.15;2.85;;;25.70;48.90;;;;;;5069492;28;20131;-70
2021/07/24 01:15:47;;;;;;;4.13;3.38;;;25.70;48.90;;;;;;5068775;28;20135;-70
2021/07/24 01:18:15;;;;;;;4.70;3.47;;;25.70;48.90;;;;;;5069143;28;20090;-65
2021/07/24 01:20:43;;;;;;;3.22;2.92;;;25.70;48.90;;;;;;5069143;28;20044;-70
2021/07/24 01:23:12;;;;;;;3.90;3.53;;;25.70;48.90;;;;;;5069121;28;20050;-65
2021/07/24 01:25:49;;;;;;;4.32;3.28;;;25.70;48.90;;;;;;5068556;28;20088;-70
2021/07/24 01:28:30;;;;;;;3.45;3.15;;;25.70;49.00;;;;;;5067450;28;20068;-70
2021/07/24 01:31:01;;;;;;;3.90;3.40;;;25.70;48.90;;;;;;5067858;28;20094;-70
2021/07/24 01:33:29;;;;;;;4.00;2.97;;;25.70;49.50;;;;;;5068721;28;20390;-71
2021/07/24 01:35:56;;;;;;;3.83;3.10;;;25.70;49.00;;;;;;5068383;28;20474;-70
2021/07/24 01:38:23;;;;;;;3.40;3.10;;;25.70;49.00;;;;;;5069228;28;20104;-70
2021/07/24 01:40:51;;;;;;;3.17;2.88;;;25.70;49.00;;;;;;5066681;28;20058;-70
2021/07/24 01:43:18;;;;;;;3.88;3.42;;;25.70;49.00;;;;;;5069012;28;20147;-70
2021/07/24 01:45:45;;;;;;;3.55;3.20;;;25.70;49.00;;;;;;5068048;28;20102;-70
2021/07/24 01:48:18;;;;;;;3.70;2.80;;;25.70;49.00;;;;;;5067077;28;20059;-70
2021/07/24 01:53:34;;;;;;;3.65;3.33;;;25.70;49.00;;;;;;5068092;28;20120;-70
2021/07/24 01:56:09;;;;;;;3.55;3.05;;;25.70;49.00;;;;;;5068060;28;20106;-70
2021/07/24 01:58:37;;;;;;;3.10;2.80;;;25.60;49.00;;;;;;5068361;28;20036;-70
2021/07/24 02:01:06;;;;;;;2.90;2.70;;;25.60;49.00;;;;;;5067900;28;20143;-70
2021/07/24 02:03:41;;;;;;;3.05;2.85;;;25.60;49.00;;;;;;5067940;28;20045;-70
2021/07/24 02:06:13;;;;;;;3.78;3.40;;;25.60;49.00;;;;;;5068409;28;20058;-70
2021/07/24 02:08:52;;;;;;;3.92;3.45;;;25.60;49.00;;;;;;5067728;28;20055;-70
2021/07/24 02:11:21;;;;;;;3.20;2.90;;;25.60;49.00;;;;;;5068523;28;20051;-70
2021/07/24 02:13:50;;;;;;;3.78;3.40;;;25.60;49.00;;;;;;5068033;28;20170;-70
2021/07/24 02:16:17;;;;;;;3.22;2.90;;;25.60;49.00;;;;;;5067328;28;20603;-65
2021/07/24 02:18:44;;;;;;;4.13;3.72;;;25.60;49.00;;;;;;5068241;28;20045;-70
2021/07/24 02:21:13;;;;;;;3.88;3.22;;;25.60;49.10;;;;;;5067649;28;20083;-65
2021/07/24 02:23:40;;;;;;;3.70;3.08;;;25.60;49.00;;;;;;5067695;28;20045;-70
2021/07/24 02:26:11;;;;;;;3.38;3.08;;;25.60;49.00;;;;;;5068321;28;20048;-70
2021/07/24 02:28:39;;;;;;;4.43;3.47;;;25.60;49.00;;;;;;5068449;28;20785;-70
2021/07/24 02:31:06;;;;;;;3.72;3.42;;;25.60;49.00;;;;;;5067538;28;20131;-70
2021/07/24 02:33:33;;;;;;;3.25;2.97;;;25.60;49.00;;;;;;5068211;28;20049;-70
2021/07/24 02:36:00;;;;;;;3.00;2.70;;;25.60;48.90;;;;;;5067562;28;20624;-70
2021/07/24 02:38:28;;;;;;;3.40;3.10;;;25.60;48.90;;;;;;5067652;28;20076;-69
2021/07/24 02:40:55;;;;;;;4.97;3.33;;;25.60;48.90;;;;;;5067506;28;20053;-70
2021/07/24 02:43:25;;;;;;;3.65;3.33;;;25.60;48.90;;;;;;5068235;28;20075;-70
2021/07/24 02:45:52;;;;;;;3.17;2.78;;;25.60;48.90;;;;;;5066694;28;20103;-65
2021/07/24 02:48:19;;;;;;;4.57;3.03;;;25.60;48.90;;;;;;5068284;28;20044;-71
2021/07/24 02:50:47;;;;;;;3.05;2.75;;;25.70;48.90;;;;;;5067243;28;20139;-70
2021/07/24 02:53:14;;;;;;;4.25;3.30;;;25.60;48.90;;;;;;5066417;28;20136;-70
2021/07/24 02:55:41;;;;;;;4.45;3.70;;;25.60;48.90;;;;;;5068367;28;20048;-70
2021/07/24 02:58:08;;;;;;;5.03;3.55;;;25.60;48.90;;;;;;5067537;28;20457;-70
2021/07/24 03:00:35;;;;;;;3.47;3.17;;;25.60;48.90;;;;;;5066883;28;20051;-70
2021/07/24 03:03:03;;;;;;;3.63;2.90;;;25.60;48.90;;;;;;5067901;28;20040;-70
2021/07/24 03:05:31;;;;;;;3.80;3.35;;;25.60;48.90;;;;;;5068164;28;20045;-70
2021/07/24 03:07:58;;;;;;;3.83;2.80;;;25.60;48.90;;;;;;5067882;28;20127;-71
2021/07/24 03:10:25;;;;;;;3.80;3.20;;;25.60;49.00;;;;;;5067276;28;20120;-70
2021/07/24 03:12:52;;;;;;;4.97;3.45;;;25.60;48.90;;;;;;5067651;28;20084;-70
2021/07/24 03:15:20;;;;;;;4.97;3.25;;;25.60;48.90;;;;;;5067266;28;20079;-70
2021/07/24 03:17:47;;;;;;;4.22;3.22;;;25.60;48.90;;;;;;5067496;28;20045;-69
2021/07/24 03:20:14;;;;;;;3.55;3.13;;;25.60;48.90;;;;;;5069365;28;20050;-70
2021/07/24 03:22:41;;;;;;;4.45;2.97;;;25.60;48.90;;;;;;5071456;28;20047;-70
2021/07/24 03:25:08;;;;;;;3.17;2.65;;;25.60;48.90;;;;;;5071089;28;20127;-70
2021/07/24 03:27:36;;;;;;;4.03;3.15;;;25.60;48.90;;;;;;5069250;28;20528;-70
2021/07/24 03:30:04;;;;;;;3.35;3.03;;;25.60;48.90;;;;;;5071132;28;20132;-70
2021/07/24 03:32:32;;;;;;;3.40;3.10;;;25.60;48.90;;;;;;5071245;28;20126;-70
2021/07/24 03:34:59;;;;;;;3.33;3.03;;;25.50;48.80;;;;;;5068912;28;20049;-70
2021/07/24 03:37:27;;;;;;;3.55;2.80;;;25.60;48.90;;;;;;5070667;28;20127;-70
2021/07/24 03:39:55;;;;;;;3.15;2.88;;;25.50;48.80;;;;;;5070253;28;20489;-70
2021/07/24 03:42:22;;;;;;;3.55;3.25;;;25.50;48.80;;;;;;5070561;28;20524;-70
2021/07/24 03:44:49;;;;;;;6.78;3.15;;;25.60;48.90;;;;;;5070722;28;20083;-70
2021/07/24 03:47:16;;;;;;;4.25;3.00;;;25.60;48.90;;;;;;5070406;28;20147;-71
2021/07/24 03:49:44;;;;;;;4.60;2.88;;;25.60;48.80;;;;;;5070636;28;20045;-71
2021/07/24 03:52:12;;;;;;;3.17;2.85;;;25.60;48.80;;;;;;5070063;28;20052;-71
2021/07/24 03:54:39;;;;;;;2.90;2.65;;;25.60;48.90;;;;;;5070929;28;20051;-71
2021/07/24 03:57:06;;;;;;;4.35;3.10;;;25.60;48.80;;;;;;5069174;28;20075;-71
2021/07/24 03:59:33;;;;;;;3.45;2.80;;;25.60;48.80;;;;;;5070427;28;20036;-71
2021/07/24 04:02:00;;;;;;;3.67;2.95;;;25.60;48.70;;;;;;5070554;28;20079;-70
2021/07/24 04:04:28;;;;;;;3.40;3.10;;;25.60;48.70;;;;;;5069481;28;20047;-71
2021/07/24 04:06:55;;;;;;;3.28;2.92;;;25.60;48.70;;;;;;5070089;28;20083;-71
2021/07/24 04:09:22;;;;;;;3.28;3.00;;;25.70;48.60;;;;;;5070945;28;20045;-65
2021/07/24 04:11:50;;;;;;;3.60;3.00;;;25.70;48.60;;;;;;5069983;28;20078;-71
2021/07/24 04:14:17;;;;;;;3.95;2.92;;;25.70;48.60;;;;;;5069424;28;20144;-70
2021/07/24 04:16:45;;;;;;;3.28;2.97;;;25.70;48.50;;;;;;5069694;28;20131;-71
2021/07/24 04:19:12;;;;;;;4.90;2.95;;;25.70;48.40;;;;;;5070774;28;20143;-71
2021/07/24 04:21:39;;;;;;;6.10;3.42;;;25.70;48.40;;;;;;5069670;28;20157;-70
2021/07/24 04:24:06;;;;;;;3.58;3.25;;;25.70;48.40;;;;;;5069991;28;20044;-70
2021/07/24 04:26:33;;;;;;;4.43;3.53;;;25.70;48.30;;;;;;5068729;28;20040;-70
2021/07/24 04:29:01;;;;;;;3.03;2.65;;;25.80;48.30;;;;;;5070169;28;20240;-70
2021/07/24 04:31:28;;;;;;;3.08;2.85;;;25.80;48.30;;;;;;5068509;28;20055;-70
2021/07/24 04:33:55;;;;;;;3.45;3.15;;;25.70;48.20;;;;;;5069950;28;20049;-70
2021/07/24 04:36:22;;;;;;;3.30;3.00;;;25.80;48.20;;;;;;5069907;28;20132;-70
2021/07/24 04:38:49;;;;;;;3.15;2.90;;;25.90;48.20;;;;;;5069925;28;20040;-70
2021/07/24 04:41:18;;;;;;;4.07;3.08;;;25.90;48.20;;;;;;5069467;28;20147;-70
2021/07/24 04:43:45;;;;;;;3.78;2.80;;;25.90;48.10;;;;;;5069628;28;20736;-70
2021/07/24 04:46:13;;;;;;;3.97;3.03;;;25.90;48.10;;;;;;5069632;28;20265;-65
2021/07/24 04:48:40;;;;;;;3.40;3.10;;;25.90;48.00;;;;;;5069780;28;20120;-70
2021/07/24 04:51:08;;;;;;;3.50;3.13;;;25.90;48.00;;;;;;5069765;28;20053;-70
2021/07/24 04:53:37;;;;;;;3.03;2.83;;;25.90;48.00;;;;;;5069265;28;20099;-70
2021/07/24 04:56:07;;;;;;;3.67;2.92;;;26.00;48.00;;;;;;5069704;28;20218;-70
2021/07/24 04:58:35;;;;;;;3.20;2.90;;;26.00;47.90;;;;;;5069263;28;20131;-70
2021/07/24 05:01:02;;;;;;;3.50;3.00;;;26.00;47.80;;;;;;5069253;28;20049;-71
2021/07/24 05:03:32;;;;;;;3.38;2.92;;;26.00;47.80;;;;;;5067795;28;20088;-70
2021/07/24 05:06:00;;;;;;;3.72;3.10;;;26.00;47.80;;;;;;5069756;28;20059;-70
2021/07/24 05:08:28;;;;;;;3.63;3.33;;;26.00;47.80;;;;;;5068824;28;20048;-70
2021/07/24 05:10:55;;;;;;;3.53;3.10;;;26.00;47.80;;;;;;5068827;28;20139;-70
2021/07/24 05:13:22;;;;;;;3.15;2.85;;;26.00;47.90;;;;;;5067472;28;20044;-70
2021/07/24 05:15:51;;;;;;;4.13;3.28;;;25.90;47.90;;;;;;5068332;28;20052;-70
2021/07/24 05:18:19;;;;;;;3.28;2.97;;;25.90;48.10;;;;;;5068633;28;20478;-70
2021/07/24 05:20:46;;;;;;;3.53;3.22;;;25.80;48.20;;;;;;5069158;28;20053;-70
2021/07/24 05:23:14;;;;;;;3.70;3.08;;;25.70;48.40;;;;;;5068540;28;20059;-70
2021/07/24 05:25:42;;;;;;;3.25;2.95;;;25.60;48.70;;;;;;5069526;28;20044;-70
2021/07/24 05:28:09;;;;;;;3.70;3.30;;;25.40;48.90;;;;;;5068175;28;20720;-70
2021/07/24 05:30:36;;;;;;;3.45;2.95;;;25.30;49.20;;;;;;5068796;28;20135;-70
2021/07/24 05:33:03;;;;;;;3.55;3.25;;;25.10;49.40;;;;;;5068706;28;20147;-70
2021/07/24 05:35:31;;;;;;;2.95;2.65;;;24.90;49.60;;;;;;5068800;28;20507;-70
2021/07/24 05:37:58;;;;;;;3.78;3.38;;;24.80;49.90;;;;;;5067370;28;20131;-70
2021/07/24 05:40:26;;;;;;;3.67;3.15;;;24.60;50.20;;;;;;5068603;28;20131;-70
2021/07/24 05:43:01;;;;;;;3.17;2.88;;;24.40;50.40;;;;;;5067469;28;20167;-70
2021/07/24 05:45:28;;;;;;;3.13;2.90;;;24.30;50.80;;;;;;5068657;28;20080;-65
2021/07/24 05:47:55;;;;;;;3.22;2.92;;;24.10;51.00;;;;;;5068454;28;20075;-70
2021/07/24 05:50:23;;;;;;;3.50;3.20;;;24.10;51.20;;;;;;5068679;28;20136;-70
2021/07/24 05:52:50;;;;;;;4.47;3.47;;;23.90;51.50;;;;;;5068315;28;20131;-70
2021/07/24 05:55:17;;;;;;;3.70;3.38;;;23.80;51.90;;;;;;5068333;28;20497;-70
2021/07/24 05:57:44;;;;;;;3.78;3.35;;;23.80;52.10;;;;;;5067895;28;20044;-70
2021/07/24 06:00:11;;;;;;;3.75;3.35;;;23.70;52.20;;;;;;5068300;28;20485;-70
2021/07/24 06:02:39;;;;;;;4.20;3.72;;;23.60;52.40;;;;;;5068444;28;20054;-70
2021/07/24 06:05:07;;;;;;;4.05;3.28;;;23.60;52.60;;;;;;5068457;28;20048;-70
2021/07/24 06:07:34;;;;;;;3.22;2.92;;;23.50;52.60;;;;;;5068454;28;20491;-70
2021/07/24 06:10:01;;;;;;;3.70;3.03;;;23.50;52.70;;;;;;5067615;28;20055;-70
2021/07/24 06:12:28;;;;;;;4.65;3.45;;;23.50;52.80;;;;;;5067898;28;20481;-70
2021/07/24 06:14:56;;;;;;;4.53;3.60;;;23.40;52.80;;;;;;5067910;28;20087;-70
2021/07/24 06:17:23;;;;;;;3.55;3.25;;;23.40;52.90;;;;;;5068506;28;20052;-70
2021/07/24 06:19:50;;;;;;;3.80;3.40;;;23.40;53.10;;;;;;5050499;28;20459;-70
2021/07/24 06:22:17;;;;;;;4.38;3.42;;;23.40;53.30;;;;;;5067681;28;20684;-70
2021/07/24 06:24:44;;;;;;;3.78;3.45;;;23.30;53.40;;;;;;5067679;28;20131;-70
2021/07/24 06:27:12;;;;;;;3.92;3.53;;;23.30;53.50;;;;;;5067899;28;20135;-70
2021/07/24 06:29:39;;;;;;;3.50;3.20;;;23.20;53.50;;;;;;5067399;28;20051;-65
2021/07/24 06:32:07;;;;;;;4.00;3.35;;;23.20;53.60;;;;;;5067848;28;20091;-70
2021/07/24 06:34:34;;;;;;;4.18;3.15;;;23.20;53.60;;;;;;5067462;28;20139;-70
2021/07/24 06:37:01;;;;;;;3.33;3.03;;;23.20;53.80;;;;;;5067766;28;20048;-70
2021/07/24 06:39:28;;;;;;;3.17;2.88;;;23.20;53.90;;;;;;5067683;28;20049;-70
2021/07/24 06:41:56;;;;;;;4.10;3.05;;;23.10;53.90;;;;;;5066121;28;20049;-70
2021/07/24 06:44:23;;;;;;;4.20;3.50;;;23.10;53.90;;;;;;5067925;28;20063;-70
2021/07/24 06:46:50;;;;;;;3.45;3.13;;;23.10;54.00;;;;;;5067488;28;20507;-70
2021/07/24 06:49:17;;;;;;;4.22;3.60;;;23.10;54.00;;;;;;5066621;28;20041;-70
2021/07/24 06:51:45;;;;;;;3.92;3.53;;;23.10;54.20;;;;;;5066118;28;20136;-70
2021/07/24 06:54:12;;;;;;;4.38;3.75;;;23.10;54.30;;;;;;5068093;28;20396;-70
2021/07/24 06:56:39;;;;;;;3.22;2.92;;;23.10;54.30;;;;;;5071595;28;20580;-70
2021/07/24 06:59:06;;;;;;;3.80;3.25;;;23.10;54.40;;;;;;5072150;28;20399;-65
2021/07/24 07:01:33;;;;;;;4.35;3.35;;;23.10;54.60;;;;;;5071933;28;20052;-70
2021/07/24 07:04:01;;;;;;;3.75;3.45;;;23.10;54.60;;;;;;5070832;28;20056;-70
2021/07/24 07:06:28;;;;;;;3.45;2.95;;;23.10;54.70;;;;;;5071639;28;20152;-70
2021/07/24 07:08:55;;;;;;;4.25;3.45;;;23.10;55.20;;;;;;5071613;28;20055;-70
2021/07/24 07:11:24;;;;;;;3.10;2.88;;;23.10;54.80;;;;;;5071561;28;20132;-70
2021/07/24 07:13:51;;;;;;;3.75;3.35;;;23.10;54.80;;;;;;5072055;28;20048;-65
2021/07/24 07:16:18;;;;;;;4.03;3.53;;;23.10;54.70;;;;;;5071158;28;20382;-70
2021/07/24 07:18:46;;;;;;;3.97;3.58;;;23.10;55.30;;;;;;5071218;28;20049;-70
2021/07/24 07:21:13;;;;;;;3.70;3.30;;;23.10;54.90;;;;;;5071335;28;20055;-70
2021/07/24 07:23:40;;;;;;;3.72;3.42;;;23.10;54.80;;;;;;5071591;28;20179;-70
2021/07/24 07:26:07;;;;;;;3.80;3.47;;;23.10;54.70;;;;;;5070254;28;20127;-70
2021/07/24 07:28:35;;;;;;;4.63;3.58;;;23.10;54.80;;;;;;5070992;28;20087;-70
2021/07/24 07:31:02;;;;;;;3.72;3.42;;;23.10;54.80;;;;;;5070782;28;20394;-70
2021/07/24 07:33:29;;;;;;;3.63;3.33;;;23.10;54.80;;;;;;5071313;28;20445;-70
2021/07/24 07:35:56;;;;;;;4.03;3.63;;;23.10;54.90;;;;;;5070738;28;20048;-70
2021/07/24 07:38:23;;;;;;;4.35;3.40;;;23.10;54.90;;;;;;5071534;28;20083;-70
2021/07/24 07:40:51;;;;;;;4.28;3.45;;;23.20;54.90;;;;;;5070268;28;20100;-70
2021/07/24 07:43:18;;;;;;;3.25;2.97;;;23.20;54.90;;;;;;5070926;28;20057;-69
2021/07/24 07:45:45;;;;;;;4.40;4.00;;;23.20;54.90;;;;;;5070721;28;20102;-70
2021/07/24 07:48:12;;;;;;;3.72;3.30;;;23.20;54.90;;;;;;5069782;28;20542;-70
2021/07/24 07:50:41;;;;;;;4.22;3.60;;;23.20;54.90;;;;;;5069106;28;20080;-70
2021/07/24 07:53:10;;;;;;;3.85;3.35;;;23.20;55.00;;;;;;5070643;28;20577;-70
2021/07/24 07:55:40;;;;;;;4.13;3.55;;;23.20;55.00;;;;;;5070047;28;20048;-69
2021/07/24 07:58:12;;;;;;;4.32;3.70;;;23.20;55.10;;;;;;5069489;28;20052;-70
2021/07/24 08:00:39;;;;;;;3.97;3.53;;;23.30;55.20;;;;;;5070108;28;20136;-70
2021/07/24 08:03:06;;;;;;;3.53;3.20;;;23.30;55.10;;;;;;5070620;28;20052;-70
2021/07/24 08:05:34;;;;;;;4.28;3.88;;;23.30;55.00;;;;;;5069485;28;20063;-70
2021/07/24 08:08:01;;;;;;;4.03;3.63;;;23.30;54.90;;;;;;5070492;28;20078;-70
2021/07/24 08:10:28;;;;;;;5.57;4.00;;;23.30;54.90;;;;;;5069864;28;20131;-70
2021/07/24 08:12:55;;;;;;;4.63;3.60;;;23.30;54.90;;;;;;5070199;28;20076;-70
2021/07/24 08:15:23;;;;;;;3.90;3.50;;;23.40;54.90;;;;;;5068740;28;20072;-69
2021/07/24 08:17:50;;;;;;;4.20;3.80;;;23.40;54.90;;;;;;5070306;28;20055;-70
2021/07/24 08:20:17;;;;;;;4.00;3.58;;;23.40;54.90;;;;;;5070092;28;20441;-70
2021/07/24 08:22:44;;;;;;;4.13;3.47;;;23.40;54.90;;;;;;5070064;28;20132;-70
2021/07/24 08:25:11;;;;;;;4.32;3.67;;;23.40;54.90;;;;;;5069771;28;20055;-70
2021/07/24 08:27:39;;;;;;;5.03;3.95;;;23.40;54.90;;;;;;5070234;28;20084;-70
2021/07/24 08:30:07;;;;;;;3.95;3.55;;;23.40;54.90;;;;;;5069507;28;20045;-70
2021/07/24 08:32:34;;;;;;;3.40;3.10;;;23.50;54.90;;;;;;5070018;28;20428;-70
2021/07/24 08:35:01;;;;;;;3.83;3.53;;;23.50;54.90;;;;;;5070224;28;20045;-70
2021/07/24 08:37:28;;;;;;;3.92;3.53;;;23.50;54.90;;;;;;5069664;28;20083;-69
2021/07/24 08:39:55;;;;;;;4.15;3.75;;;23.50;54.90;;;;;;5069591;28;20485;-70
2021/07/24 08:42:32;;;;;;;3.95;3.55;;;23.50;54.90;;;;;;5069733;28;20135;-70
2021/07/24 08:45:01;;;;;;;4.50;3.92;;;23.50;54.80;;;;;;5069757;28;20505;-70
2021/07/24 08:47:29;;;;;;;4.07;3.67;;;23.50;54.70;;;;;;5069459;28;20106;-70
2021/07/24 08:49:58;;;;;;;5.30;3.92;;;23.50;54.70;;;;;;5069676;28;20455;-70
2021/07/24 08:52:28;;;;;;;4.15;3.75;;;23.60;54.70;;;;;;5068301;28;20044;-70
2021/07/24 08:54:56;;;;;;;3.90;3.53;;;23.60;54.70;;;;;;5068107;28;20052;-70
2021/07/24 08:57:32;;;;;;;4.00;3.53;;;23.60;54.70;;;;;;5069818;28;20090;-70
2021/07/24 09:00:15;;;;;;;4.30;3.90;;;23.60;54.70;;;;;;5069336;28;20131;-70
2021/07/24 09:02:44;;;;;;;4.35;3.88;;;23.60;54.50;;;;;;5068867;28;20055;-70
2021/07/24 09:05:14;;;;;;;4.43;3.83;;;23.60;54.50;;;;;;5069356;28;20048;-70
2021/07/24 09:07:43;;;;;;;4.65;3.67;;;23.70;54.50;;;;;;5069346;28;20052;-64
2021/07/24 09:10:12;;;;;;;3.87;3.50;;;23.70;54.50;;;;;;5069661;28;20059;-70
2021/07/24 09:12:41;;;;;;;4.22;3.80;;;23.70;54.40;;;;;;5068786;28;20047;-70
2021/07/24 09:15:11;;;;;;;3.95;3.65;;;23.70;54.40;;;;;;5069632;28;20048;-70
2021/07/24 09:17:38;;;;;;;4.55;3.70;;;23.70;54.30;;;;;;5068615;28;20139;-70
2021/07/24 09:20:06;;;;;;;4.40;4.00;;;23.80;54.40;;;;;;5069383;28;20135;-70
2021/07/24 09:22:35;;;;;;;4.32;3.45;;;23.80;54.30;;;;;;5068781;28;20131;-70
2021/07/24 09:25:17;;;;;;;4.07;3.53;;;23.80;54.30;;;;;;5071079;28;20469;-69
2021/07/24 09:27:50;;;;;;;4.53;4.10;;;23.80;54.30;;;;;;5065663;28;20091;-70
2021/07/24 09:30:34;;;;;;;4.40;3.88;;;23.80;54.20;;;;;;5068697;28;20569;-69
2021/07/24 09:33:11;;;;;;;4.00;3.60;;;23.80;54.20;;;;;;5068564;28;20083;-70
2021/07/24 09:35:52;;;;;;;4.15;3.75;;;23.80;54.80;;;;;;5068661;28;20125;-70
2021/07/24 09:38:30;;;;;;;4.88;4.15;;;23.80;54.20;;;;;;5068534;28;20080;-69
2021/07/24 09:41:03;;;;;;;3.97;3.38;;;23.80;54.20;;;;;;5068583;28;20110;-70
2021/07/24 09:43:39;;;;;;;4.32;3.92;;;23.90;54.20;;;;;;5068421;28;20083;-69
2021/07/24 09:46:11;;;;;;;4.63;4.20;;;23.80;54.20;;;;;;5068655;28;20416;-70
2021/07/24 09:48:40;;;;;;;4.13;3.72;;;23.90;54.20;;;;;;5068387;28;20050;-70
2021/07/24 09:51:09;;;;;;;4.20;3.80;;;23.90;54.10;;;;;;5067711;28;20127;-70
2021/07/24 09:53:44;;;;;;;4.88;4.10;;;23.90;54.10;;;;;;5067857;28;20048;-70
2021/07/24 09:56:17;;;;;;;3.78;3.47;;;23.90;54.10;;;;;;5068350;28;20151;-70
2021/07/24 09:58:47;;;;;;;4.13;3.72;;;23.90;53.90;;;;;;5067850;28;20079;-70
2021/07/24 10:01:19;;;;;;;4.28;3.65;;;23.90;53.80;;;;;;5068178;28;20135;-70
2021/07/24 10:03:51;;;;;;;4.10;3.72;;;23.90;53.70;;;;;;5067895;28;20052;-70
2021/07/24 10:06:18;;;;;;;4.18;3.58;;;23.90;53.70;;;;;;5068495;28;20070;-70
2021/07/24 10:08:51;;;;;;;4.10;3.70;;;23.90;53.50;;;;;;5067676;28;20118;-70
2021/07/24 10:11:19;;;;;;;4.45;3.95;;;23.90;53.60;;;;;;5067386;28;20047;-70
2021/07/24 10:13:47;;;;;;;5.00;4.10;;;23.90;53.60;;;;;;5067458;28;20044;-70
2021/07/24 10:16:15;;;;;;;4.05;3.47;;;23.90;53.50;;;;;;5068159;28;20493;-70
2021/07/24 10:18:43;;;;;;;4.15;3.75;;;23.90;53.50;;;;;;5049898;28;20076;-70
2021/07/24 10:21:10;;;;;;;3.92;3.60;;;23.80;53.40;;;;;;5068449;28;20302;-69
2021/07/24 10:23:38;;;;;;;3.92;3.53;;;23.80;53.30;;;;;;5067735;28;20112;-69
2021/07/24 10:26:13;;;;;;;3.92;3.45;;;23.80;53.30;;;;;;5067054;28;20400;-69
2021/07/24 10:28:59;;;;;;;4.47;3.70;;;23.80;53.20;;;;;;5066777;28;20132;-69
2021/07/24 10:31:52;;;;;;;4.38;3.67;;;23.80;53.20;;;;;;5067685;28;20083;-69
2021/07/24 10:34:24;;;;;;;5.97;4.72;;;23.80;53.30;;;;;;5068164;28;20048;-70
2021/07/24 10:36:51;;;;;;;4.10;3.55;;;23.80;53.20;;;;;;5068270;28;20041;-70
2021/07/24 10:39:21;;;;;;;5.15;4.07;;;23.80;53.10;;;;;;5067445;28;20044;-70
2021/07/24 10:42:10;;;;;;;5.05;3.90;;;23.90;53.00;;;;;;5067927;28;20045;-65
2021/07/24 10:44:40;;;;;;;4.22;3.63;;;23.80;53.00;;;;;;5068007;28;20404;-70
2021/07/24 10:47:09;;;;;;;5.07;4.43;;;23.90;52.90;;;;;;5068341;28;20236;-70
2021/07/24 10:49:56;;;;;;;4.85;3.92;;;23.90;52.80;;;;;;5067030;28;20123;-70
2021/07/24 10:52:24;;;;;;;3.97;3.58;;;23.90;52.80;;;;;;5067559;28;20079;-65
2021/07/24 10:55:12;;;;;;;4.30;3.90;;;23.90;52.80;;;;;;5067535;28;20614;-70
2021/07/24 10:58:02;;;;;;;4.18;3.78;;;23.90;52.80;;;;;;5067338;28;20049;-70
2021/07/24 11:00:34;;;;;;;3.80;3.47;;;23.90;52.80;;;;;;5066986;28;20076;-69
2021/07/24 11:03:02;;;;;;;4.07;3.65;;;23.90;52.80;;;;;;5067530;28;20075;-69
2021/07/24 11:05:30;;;;;;;4.55;3.83;;;23.80;52.80;;;;;;5066336;28;20121;-69
2021/07/24 11:07:58;;;;;;;4.20;3.72;;;23.90;52.80;;;;;;5066512;28;20051;-70
2021/07/24 11:10:26;;;;;;;3.90;3.60;;;23.90;52.80;;;;;;5067384;28;20055;-70
2021/07/24 11:12:53;;;;;;;4.88;4.38;;;23.90;52.80;;;;;;5067662;28;20098;-70
2021/07/24 11:15:46;;;;;;;4.47;3.75;;;23.90;52.80;;;;;;5067361;28;20139;-70
2021/07/24 11:18:22;;;;;;;4.07;3.67;;;23.90;52.80;;;;;;5066555;28;20095;-70
2021/07/24 11:20:51;;;;;;;4.35;3.95;;;23.90;52.80;;;;;;5067274;28;20158;-69
2021/07/24 11:23:18;;;;;;;4.10;3.70;;;23.90;52.70;;;;;;5067448;28;20546;-70
2021/07/24 11:25:46;;;;;;;4.97;4.47;;;23.90;52.60;;;;;;5067478;28;20048;-69
2021/07/24 11:28:19;;;;;;;3.85;3.55;;;23.90;52.60;;;;;;5067847;28;20122;-70
2021/07/24 11:30:56;;;;;;;4.68;4.28;;;23.90;52.60;;;;;;5066710;28;20132;-70
2021/07/24 11:33:28;;;;;;;4.78;4.28;;;23.90;52.60;;;;;;5066125;28;20043;-69
2021/07/24 11:36:02;;;;;;;3.38;3.08;;;23.90;52.60;;;;;;5066004;28;20084;-69
2021/07/24 11:38:30;;;;;;;4.93;3.95;;;23.90;52.60;;;;;;5066982;28;20075;-70
2021/07/24 11:40:59;;;;;;;4.03;3.63;;;23.90;52.60;;;;;;5069083;28;20129;-70
2021/07/24 11:43:27;;;;;;;3.92;3.53;;;23.80;52.50;;;;;;5070396;28;20131;-69
2021/07/24 11:46:03;;;;;;;3.97;3.58;;;23.90;52.60;;;;;;5070985;28;20037;-70
2021/07/24 11:48:30;;;;;;;4.05;3.58;;;23.90;52.60;;;;;;5070454;28;20489;-69
2021/07/24 11:51:03;;;;;;;4.55;4.10;;;23.90;52.60;;;;;;5070391;28;20045;-70
2021/07/24 11:53:31;;;;;;;4.18;3.78;;;23.90;52.60;;;;;;5070381;28;20548;-69
2021/07/24 11:56:00;;;;;;;4.43;4.03;;;23.90;52.60;;;;;;5070544;28;20053;-70
2021/07/24 11:58:28;;;;;;;4.40;3.85;;;23.90;52.60;;;;;;5070919;28;20040;-70
2021/07/24 12:00:56;;;;;;;3.95;3.58;;;23.90;52.70;;;;;;5069774;28;20143;-68
2021/07/24 12:03:29;;;;;;;4.35;3.72;;;23.90;52.70;;;;;;5069751;28;20071;-69
2021/07/24 12:06:12;;;;;;;4.40;4.00;;;23.90;52.80;;;;;;5069935;28;20041;-70
2021/07/24 12:08:42;;;;;;;4.80;4.22;;;23.90;52.70;;;;;;5069333;28;20095;-69
2021/07/24 12:11:14;;;;;;;4.28;3.75;;;23.90;52.60;;;;;;5070287;28;20083;-69
2021/07/24 12:13:41;;;;;;;3.80;3.50;;;23.90;52.70;;;;;;5070619;28;20048;-70
2021/07/24 12:16:12;;;;;;;4.28;3.88;;;24.00;52.70;;;;;;5069739;28;20041;-70
2021/07/24 12:18:45;;;;;;;4.47;3.97;;;23.90;52.60;;;;;;5069002;28;20049;-69
2021/07/24 12:21:30;;;;;;;4.20;3.47;;;24.00;52.70;;;;;;5070242;28;20143;-69
2021/07/24 12:24:07;;;;;;;4.70;4.20;;;24.00;52.60;;;;;;5069902;28;20052;-69
2021/07/24 12:26:37;;;;;;;3.97;3.58;;;24.00;52.50;;;;;;5069952;28;20136;-69
2021/07/24 12:29:24;;;;;;;4.45;4.05;;;24.10;52.50;;;;;;5069870;28;20128;-70
2021/07/24 12:31:53;;;;;;;4.47;4.03;;;24.10;52.50;;;;;;5054759;28;20044;-70
2021/07/24 12:34:22;;;;;;;4.33;3.93;;;24.10;52.40;;;;;;5070210;28;20078;-70
2021/07/24 12:36:57;;;;;;;4.68;4.00;;;24.10;52.30;;;;;;5069827;28;20091;-70
2021/07/24 12:39:26;;;;;;;4.10;3.70;;;24.10;52.20;;;;;;5069984;28;20098;-70
2021/07/24 12:42:07;;;;;;;4.63;3.75;;;24.10;52.20;;;;;;5069475;28;20136;-69
2021/07/24 12:44:57;;;;;;;4.32;3.92;;;24.20;52.20;;;;;;5069581;28;20135;-69
2021/07/24 12:47:33;;;;;;;4.10;3.75;;;24.20;52.20;;;;;;5069837;28;20052;-70
2021/07/24 12:50:14;;;;;;;4.28;3.88;;;24.10;52.10;;;;;;5069260;28;20083;-70
2021/07/24 12:52:52;;;;;;;4.53;3.95;;;24.20;52.10;;;;;;5067700;28;20531;-64
2021/07/24 12:55:22;;;;;;;5.50;4.32;;;24.20;52.10;;;;;;5069088;28;20067;-69
2021/07/24 12:57:50;;;;;;;4.70;4.13;;;24.20;52.10;;;;;;5069765;28;20575;-70
2021/07/24 13:00:20;;;;;;;4.18;3.78;;;24.20;52.00;;;;;;5067613;28;20132;-70
2021/07/24 13:02:49;;;;;;;4.18;3.78;;;24.20;52.00;;;;;;5069607;28;20044;-70